Tiffin, Iowa
Current Conditions -  °F | °C
As of 4:37 PM on Monday 26 Jan 2015 (Local Time) from KIOW Reporting Station
Scattered Clouds Scattered Clouds  
Wind Chill: 35°   Ceiling: Unl
Heat Index: 35°   Visibility: 9mi
Dew Point: 32°   Wind: 0mph
Humidity: 89%   Direction: NA
Pressure: 29.84"   Gusts: NA
Location:  41.71°N, 91.66°W
Report Text: KIOW 262237Z AUTO 00000KT 9SM SCT024 02/00 A2984 RMK AO2 T00170000
Loading
Personal Weather Stations






























Interactive Weather Map New forecast layout! Learn more

10-Day Weather Forecast

Advertisements
Track Severe Weather on mobile